Terminal Aerodrome Forecast
Issued by NWS

Home | Current Version | Previous Version | Text Only | Print | Product List | Glossary On
Versions: 1 2 3 4 5 6 7 8 9 10 11 12 13 14
000
FTUS45 KREV 300520
TAFTVL
TAF
KTVL 300520Z 3006/0106 VRB04KT P6SM FEW200
      TEMPO 3017/3021 02008KT
     FM302100 19009KT P6SM FEW060
     FM010100 VRB04KT P6SM SKC=

USA.gov is the U.S. government's official web portal to all federal, state and local government web resources and services.